Time;durP1;ratioP1;P1;durP2;ratioP2;P2;SDS_P1;SDS_P2;PMS_P1;PMS_P2;Temp;Humidity;BMP_temperature;BMP_pressure;BME280_temperature;BME280_humidity;BME280_pressure;Samples;Min_cycle;Max_cycle;Signal;HPM_P1;HPM_P2
2022/05/04 00:00:26;;;;;;;9.13;1.25;;;;;;;;;;5104129;28;20130;-74
2022/05/04 00:02:52;;;;;;;12.82;2.13;;;;;;;;;;5106364;28;20467;-73
2022/05/04 00:05:18;;;;;;;8.52;1.90;;;;;;;;;;5111005;28;20055;-74
2022/05/04 00:07:45;;;;;;;7.32;1.70;;;;;;;;;;5100062;28;20024;-73
2022/05/04 00:10:11;;;;;;;10.80;1.42;;;;;;;;;;5110617;28;20051;-74
2022/05/04 00:12:37;;;;;;;9.10;1.83;;;;;;;;;;5109980;28;20108;-74
2022/05/04 00:15:04;;;;;;;16.73;2.17;;;;;;;;;;5103381;28;20031;-75
2022/05/04 00:17:30;;;;;;;9.82;1.98;;;;;;;;;;5111273;28;20034;-75
2022/05/04 00:19:56;;;;;;;13.93;1.88;;;;;;;;;;5098163;28;20027;-74
2022/05/04 00:22:23;;;;;;;16.50;1.80;;;;;;;;;;5107780;28;20378;-75
2022/05/04 00:24:49;;;;;;;13.27;2.20;;;;;;;;;;5096188;28;20037;-75
2022/05/04 00:27:15;;;;;;;8.90;2.67;;;;;;;;;;5093350;28;20027;-77
2022/05/04 00:29:42;;;;;;;8.35;1.98;;;;;;;;;;5098897;28;20031;-74
2022/05/04 00:32:09;;;;;;;12.27;2.92;;;;;;;;;;5097087;28;20043;-74
2022/05/04 00:34:35;;;;;;;8.13;2.00;;;;;;;;;;5095964;28;20044;-75
2022/05/04 00:37:01;;;;;;;8.60;2.88;;;;;;;;;;5104877;28;20020;-75
2022/05/04 00:39:28;;;;;;;9.90;1.90;;;;;;;;;;5096109;28;20024;-74
2022/05/04 00:41:54;;;;;;;12.82;1.92;;;;;;;;;;5099725;28;20040;-74
2022/05/04 00:44:20;;;;;;;7.25;1.83;;;;;;;;;;5098735;28;20034;-74
2022/05/04 00:46:46;;;;;;;15.07;2.97;;;;;;;;;;5108733;28;20047;-75
2022/05/04 00:49:12;;;;;;;8.82;1.52;;;;;;;;;;5107984;28;20039;-75
2022/05/04 00:51:38;;;;;;;3.53;1.90;;;;;;;;;;5093707;28;20036;-74
2022/05/04 00:54:04;;;;;;;11.95;2.03;;;;;;;;;;5110265;28;20126;-74
2022/05/04 00:56:31;;;;;;;9.50;2.13;;;;;;;;;;5112255;28;20040;-74
2022/05/04 00:58:57;;;;;;;13.15;2.00;;;;;;;;;;5111473;28;20031;-75
2022/05/04 01:01:27;;;;;;;13.15;2.15;;;;;;;;;;5114086;28;20115;-75
2022/05/04 01:03:57;;;;;;;7.47;1.45;;;;;;;;;;5113396;28;20053;-75
2022/05/04 01:06:24;;;;;;;18.50;2.58;;;;;;;;;;5113476;28;20521;-75
2022/05/04 01:08:50;;;;;;;7.03;1.90;;;;;;;;;;5113654;28;20031;-75
2022/05/04 01:11:17;;;;;;;11.13;2.47;;;;;;;;;;5106832;28;20576;-75
2022/05/04 01:13:43;;;;;;;8.30;1.63;;;;;;;;;;5104213;28;20072;-75
2022/05/04 01:16:09;;;;;;;10.88;1.90;;;;;;;;;;5099875;28;20544;-76
2022/05/04 01:18:35;;;;;;;9.35;1.67;;;;;;;;;;5109706;28;20085;-74
2022/05/04 01:21:03;;;;;;;10.23;1.88;;;;;;;;;;5109867;28;20020;-75
2022/05/04 01:23:29;;;;;;;10.57;2.72;;;;;;;;;;5086600;28;20074;-75
2022/05/04 01:25:57;;;;;;;7.15;1.95;;;;;;;;;;5112963;28;20085;-74
2022/05/04 01:28:23;;;;;;;8.18;1.73;;;;;;;;;;5107341;28;20431;-74
2022/05/04 01:30:49;;;;;;;10.88;1.85;;;;;;;;;;5109173;28;20479;-74
2022/05/04 01:33:15;;;;;;;12.02;2.20;;;;;;;;;;5110909;28;20123;-74
2022/05/04 01:35:41;;;;;;;14.10;2.10;;;;;;;;;;5106617;28;20028;-75
2022/05/04 01:38:07;;;;;;;10.48;1.52;;;;;;;;;;5103854;28;20080;-75
2022/05/04 01:40:33;;;;;;;13.80;1.85;;;;;;;;;;5111093;28;20083;-75
2022/05/04 01:42:59;;;;;;;8.45;1.58;;;;;;;;;;5103673;28;20040;-75
2022/05/04 01:45:25;;;;;;;7.93;1.70;;;;;;;;;;5101479;28;20036;-74
2022/05/04 01:47:51;;;;;;;15.48;3.38;;;;;;;;;;5098816;28;20039;-74
2022/05/04 01:50:18;;;;;;;10.77;2.90;;;;;;;;;;5102841;28;20030;-75
2022/05/04 01:52:44;;;;;;;10.55;2.97;;;;;;;;;;5113740;27;20069;-74
2022/05/04 01:55:10;;;;;;;12.05;1.80;;;;;;;;;;5104192;28;20058;-74
2022/05/04 01:57:37;;;;;;;10.48;2.00;;;;;;;;;;5100852;27;20024;-72
2022/05/04 02:00:04;;;;;;;10.25;1.98;;;;;;;;;;5097120;28;20032;-73
2022/05/04 02:02:30;;;;;;;14.80;1.67;;;;;;;;;;5100508;28;20039;-73
2022/05/04 02:04:56;;;;;;;8.45;1.60;;;;;;;;;;5108719;28;20051;-72
2022/05/04 02:07:22;;;;;;;13.57;1.80;;;;;;;;;;5113239;28;20060;-73
2022/05/04 02:09:49;;;;;;;11.38;1.70;;;;;;;;;;5113361;28;20041;-73
2022/05/04 02:12:15;;;;;;;8.38;1.70;;;;;;;;;;5114252;28;20467;-73
2022/05/04 02:14:41;;;;;;;6.43;1.70;;;;;;;;;;5110150;28;20034;-73
2022/05/04 02:17:07;;;;;;;9.15;1.60;;;;;;;;;;5107211;28;20620;-74
2022/05/04 02:19:33;;;;;;;14.45;2.22;;;;;;;;;;5095163;28;20479;-74
2022/05/04 02:21:59;;;;;;;7.68;1.77;;;;;;;;;;5107008;28;20031;-75
2022/05/04 02:24:25;;;;;;;17.13;2.10;;;;;;;;;;5106123;28;20040;-75
2022/05/04 02:26:51;;;;;;;8.35;2.45;;;;;;;;;;5109393;28;20027;-74
2022/05/04 02:29:17;;;;;;;9.75;1.77;;;;;;;;;;5106886;28;20034;-74
2022/05/04 02:31:43;;;;;;;8.10;1.65;;;;;;;;;;5113425;27;20043;-74
2022/05/04 02:34:09;;;;;;;10.70;1.85;;;;;;;;;;5109053;28;20416;-74
2022/05/04 02:39:20;;;;;;;9.43;2.58;;;;;;;;;;5111931;28;20042;-74
2022/05/04 02:41:48;;;;;;;9.55;1.40;;;;;;;;;;5112617;28;20103;-74
2022/05/04 02:44:15;;;;;;;13.13;1.60;;;;;;;;;;5110387;28;20042;-74
2022/05/04 02:46:41;;;;;;;8.50;2.25;;;;;;;;;;5107470;28;20031;-74
2022/05/04 02:49:07;;;;;;;12.55;2.33;;;;;;;;;;5111653;28;20023;-74
2022/05/04 02:51:33;;;;;;;7.28;2.15;;;;;;;;;;5097317;28;20369;-73
2022/05/04 02:53:59;;;;;;;11.48;1.70;;;;;;;;;;5102184;28;20042;-73
2022/05/04 02:56:25;;;;;;;9.77;1.98;;;;;;;;;;5112091;28;20054;-73
2022/05/04 02:58:53;;;;;;;14.48;2.03;;;;;;;;;;5111051;28;20047;-74
2022/05/04 03:04:06;;;;;;;15.18;2.72;;;;;;;;;;5098257;28;20050;-73
2022/05/04 03:06:32;;;;;;;10.45;1.60;;;;;;;;;;5111052;28;20075;-73
2022/05/04 03:08:58;;;;;;;10.50;1.80;;;;;;;;;;5111335;28;20398;-74
2022/05/04 03:14:09;;;;;;;15.98;3.03;;;;;;;;;;5106639;28;20042;-74
2022/05/04 03:16:36;;;;;;;7.65;1.70;;;;;;;;;;5107773;28;20338;-74
2022/05/04 03:19:02;;;;;;;14.82;2.25;;;;;;;;;;5106361;28;20099;-74
2022/05/04 03:21:28;;;;;;;13.52;3.17;;;;;;;;;;5109334;28;20028;-74
2022/05/04 03:23:54;;;;;;;9.88;2.88;;;;;;;;;;5105441;28;20031;-75
2022/05/04 03:26:20;;;;;;;8.07;2.00;;;;;;;;;;5110482;28;20054;-74
2022/05/04 03:28:46;;;;;;;7.03;1.52;;;;;;;;;;5102718;28;20067;-74
2022/05/04 03:31:13;;;;;;;11.20;3.13;;;;;;;;;;5107994;28;20081;-74
2022/05/04 03:33:39;;;;;;;7.63;1.50;;;;;;;;;;5109879;28;20028;-73
2022/05/04 03:36:06;;;;;;;11.25;1.50;;;;;;;;;;5099469;28;20030;-74
2022/05/04 03:38:32;;;;;;;10.32;2.80;;;;;;;;;;5105121;28;20042;-73
2022/05/04 03:40:58;;;;;;;11.63;1.75;;;;;;;;;;5109293;28;20035;-74
2022/05/04 03:43:24;;;;;;;6.47;1.38;;;;;;;;;;5100623;28;20104;-74
2022/05/04 03:45:50;;;;;;;8.27;1.75;;;;;;;;;;5103623;28;20020;-74
2022/05/04 03:48:16;;;;;;;10.50;2.10;;;;;;;;;;5097238;28;20110;-73
2022/05/04 03:50:44;;;;;;;9.68;2.58;;;;;;;;;;5105051;28;20074;-72
2022/05/04 03:53:11;;;;;;;6.97;1.50;;;;;;;;;;5109046;28;20039;-73
2022/05/04 03:55:37;;;;;;;6.47;1.75;;;;;;;;;;5101503;28;20024;-73
2022/05/04 03:58:03;;;;;;;15.13;1.95;;;;;;;;;;5108115;28;20031;-73
2022/05/04 04:00:29;;;;;;;11.52;2.45;;;;;;;;;;5107007;28;20024;-74
2022/05/04 04:02:56;;;;;;;9.13;1.80;;;;;;;;;;5105291;28;20188;-74
2022/05/04 04:05:23;;;;;;;11.85;1.75;;;;;;;;;;5104734;28;20124;-74
2022/05/04 04:07:49;;;;;;;9.82;2.08;;;;;;;;;;5107888;28;20073;-74
2022/05/04 04:10:16;;;;;;;8.10;1.98;;;;;;;;;;5110677;28;20922;-73
2022/05/04 04:12:42;;;;;;;6.72;1.83;;;;;;;;;;5097236;28;20387;-74
2022/05/04 04:15:08;;;;;;;11.10;1.88;;;;;;;;;;5096700;28;20427;-74
2022/05/04 04:17:34;;;;;;;9.13;2.45;;;;;;;;;;5101852;28;20107;-73
2022/05/04 04:22:44;;;;;;;9.70;2.33;;;;;;;;;;5109624;28;21003;-73
2022/05/04 04:25:11;;;;;;;7.32;2.35;;;;;;;;;;5099534;28;20035;-73
2022/05/04 04:27:37;;;;;;;8.23;2.58;;;;;;;;;;5105923;28;20047;-73
2022/05/04 04:30:03;;;;;;;9.95;3.17;;;;;;;;;;5108093;28;20026;-75
2022/05/04 04:32:29;;;;;;;10.68;3.28;;;;;;;;;;5105436;28;20040;-75
2022/05/04 04:34:55;;;;;;;12.40;2.42;;;;;;;;;;5110053;28;20092;-73
2022/05/04 04:37:21;;;;;;;14.25;2.30;;;;;;;;;;5107526;28;20024;-78
2022/05/04 04:39:47;;;;;;;12.30;1.83;;;;;;;;;;5097465;28;20041;-75
2022/05/04 04:42:13;;;;;;;13.85;1.90;;;;;;;;;;5110368;28;20031;-76
2022/05/04 04:44:39;;;;;;;8.38;1.83;;;;;;;;;;5108581;28;20547;-75
2022/05/04 04:47:05;;;;;;;10.80;3.03;;;;;;;;;;5101369;28;20032;-74
2022/05/04 04:49:31;;;;;;;13.70;5.03;;;;;;;;;;5103282;28;20047;-71
2022/05/04 04:51:58;;;;;;;6.57;2.22;;;;;;;;;;5100348;28;20097;-72
2022/05/04 04:54:24;;;;;;;10.18;2.88;;;;;;;;;;5108031;28;20031;-78
2022/05/04 04:56:50;;;;;;;8.85;1.75;;;;;;;;;;5104765;28;20023;-75
2022/05/04 04:59:16;;;;;;;8.57;1.90;;;;;;;;;;5107034;28;20031;-74
2022/05/04 05:01:42;;;;;;;10.45;2.33;;;;;;;;;;5093994;28;20024;-74
2022/05/04 05:04:09;;;;;;;5.82;1.35;;;;;;;;;;5111782;28;20030;-76
2022/05/04 05:06:35;;;;;;;7.90;1.70;;;;;;;;;;5110947;28;20048;-75
2022/05/04 05:09:02;;;;;;;9.20;2.60;;;;;;;;;;5093451;28;20055;-77
2022/05/04 05:11:28;;;;;;;11.75;2.33;;;;;;;;;;5108852;28;20104;-75
2022/05/04 05:16:39;;;;;;;7.32;2.03;;;;;;;;;;5106758;28;20074;-75
2022/05/04 05:19:05;;;;;;;13.43;2.13;;;;;;;;;;5105278;28;20089;-75
2022/05/04 05:21:31;;;;;;;15.18;1.85;;;;;;;;;;5108475;28;20035;-74
2022/05/04 05:23:57;;;;;;;9.48;1.70;;;;;;;;;;5107780;28;20044;-74
2022/05/04 05:26:23;;;;;;;15.13;2.30;;;;;;;;;;5097781;28;20028;-73
2022/05/04 05:28:49;;;;;;;14.60;3.53;;;;;;;;;;5101548;28;20447;-72
2022/05/04 05:31:15;;;;;;;7.60;1.90;;;;;;;;;;5100249;28;20039;-72
2022/05/04 05:33:45;;;;;;;9.98;3.10;;;;;;;;;;5109162;28;20042;-73
2022/05/04 05:36:11;;;;;;;7.68;1.58;;;;;;;;;;5108951;28;20024;-74
2022/05/04 05:38:37;;;;;;;8.07;2.10;;;;;;;;;;5108061;28;20031;-74
2022/05/04 05:41:03;;;;;;;13.07;1.88;;;;;;;;;;5099577;28;20028;-74
2022/05/04 05:43:29;;;;;;;12.07;1.70;;;;;;;;;;5112855;28;20039;-74
2022/05/04 05:45:55;;;;;;;10.65;1.52;;;;;;;;;;5107299;28;20035;-77
2022/05/04 05:48:22;;;;;;;9.18;1.98;;;;;;;;;;5105029;28;20032;-74
2022/05/04 05:50:48;;;;;;;12.88;1.60;;;;;;;;;;5105054;28;20408;-75
2022/05/04 05:53:14;;;;;;;13.20;3.03;;;;;;;;;;5107646;28;20028;-72
2022/05/04 05:55:41;;;;;;;10.55;2.08;;;;;;;;;;5114099;28;20437;-73
2022/05/04 05:58:07;;;;;;;7.82;1.77;;;;;;;;;;5111760;28;20024;-74
2022/05/04 06:00:33;;;;;;;14.55;1.92;;;;;;;;;;5108445;28;20036;-72
2022/05/04 06:02:59;;;;;;;10.35;1.45;;;;;;;;;;5106997;28;20589;-72
2022/05/04 06:05:25;;;;;;;13.45;5.15;;;;;;;;;;5103785;28;20376;-72
2022/05/04 06:07:51;;;;;;;7.38;2.08;;;;;;;;;;5106879;28;20016;-73
2022/05/04 06:10:17;;;;;;;8.13;1.63;;;;;;;;;;5110453;28;20031;-73
2022/05/04 06:12:44;;;;;;;13.07;2.85;;;;;;;;;;5111694;28;20036;-72
2022/05/04 06:15:10;;;;;;;8.13;1.58;;;;;;;;;;5109636;27;20032;-73
2022/05/04 06:17:37;;;;;;;11.20;2.05;;;;;;;;;;5109163;28;20027;-72
2022/05/04 06:20:06;;;;;;;9.23;1.40;;;;;;;;;;5113164;28;20023;-72
2022/05/04 06:22:32;;;;;;;9.88;1.80;;;;;;;;;;5111320;28;20027;-72
2022/05/04 06:24:58;;;;;;;9.73;2.10;;;;;;;;;;5113650;28;20038;-72
2022/05/04 06:27:24;;;;;;;10.10;1.60;;;;;;;;;;5111354;28;20475;-72
2022/05/04 06:35:19;;;;;;;8.50;1.50;;;;;;;;;;5110323;28;20115;-74
2022/05/04 06:37:46;;;;;;;6.63;1.67;;;;;;;;;;5104059;28;20024;-74
2022/05/04 06:40:12;;;;;;;8.45;1.80;;;;;;;;;;5103514;28;20031;-74
2022/05/04 06:42:39;;;;;;;8.32;1.45;;;;;;;;;;5109660;28;20035;-74
2022/05/04 06:45:06;;;;;;;8.55;1.25;;;;;;;;;;5111978;28;20043;-74
2022/05/04 06:47:33;;;;;;;8.57;1.27;;;;;;;;;;5097873;28;20042;-74
2022/05/04 06:49:59;;;;;;;7.35;1.83;;;;;;;;;;5104442;27;20040;-74
2022/05/04 06:52:26;;;;;;;10.27;2.17;;;;;;;;;;5110945;28;20114;-74
2022/05/04 06:54:52;;;;;;;11.25;1.92;;;;;;;;;;5101352;28;20023;-73
2022/05/04 06:57:18;;;;;;;7.40;1.65;;;;;;;;;;5106841;28;20118;-73
2022/05/04 06:59:44;;;;;;;10.43;1.70;;;;;;;;;;5100500;28;20035;-75
2022/05/04 07:02:10;;;;;;;6.10;1.98;;;;;;;;;;5108163;28;20024;-74
2022/05/04 07:04:36;;;;;;;9.30;1.83;;;;;;;;;;5110807;28;20031;-74
2022/05/04 07:07:02;;;;;;;9.63;2.25;;;;;;;;;;5108201;27;20047;-74
2022/05/04 07:09:28;;;;;;;10.90;2.28;;;;;;;;;;5103764;28;20031;-74
2022/05/04 07:11:54;;;;;;;34.30;17.92;;;;;;;;;;5110663;28;20035;-75
2022/05/04 07:14:20;;;;;;;10.38;3.10;;;;;;;;;;5110209;28;20061;-73
2022/05/04 07:16:47;;;;;;;10.00;1.75;;;;;;;;;;5111955;28;20023;-74
2022/05/04 07:19:13;;;;;;;5.93;1.60;;;;;;;;;;5110742;28;20080;-74
2022/05/04 07:21:40;;;;;;;11.00;2.65;;;;;;;;;;5107189;27;20117;-74
2022/05/04 07:24:06;;;;;;;10.25;2.40;;;;;;;;;;5097333;28;20040;-78
2022/05/04 07:26:33;;;;;;;20.70;2.22;;;;;;;;;;5109684;28;20035;-77
2022/05/04 07:28:59;;;;;;;7.85;2.38;;;;;;;;;;5110304;28;20091;-77
2022/05/04 07:31:25;;;;;;;7.30;1.65;;;;;;;;;;5104112;28;20042;-77
2022/05/04 07:33:51;;;;;;;17.17;4.28;;;;;;;;;;5104651;28;20032;-77
2022/05/04 07:36:17;;;;;;;15.15;2.70;;;;;;;;;;5109574;28;20043;-76
2022/05/04 07:38:43;;;;;;;102.78;16.65;;;;;;;;;;5107585;28;20043;-77
2022/05/04 07:43:54;;;;;;;10.48;1.95;;;;;;;;;;5098407;28;20043;-77
2022/05/04 07:46:20;;;;;;;13.57;1.77;;;;;;;;;;5099555;28;20032;-76
2022/05/04 07:48:46;;;;;;;10.18;1.73;;;;;;;;;;5103466;28;20028;-77
2022/05/04 07:51:12;;;;;;;9.57;1.58;;;;;;;;;;5110262;28;20056;-77
2022/05/04 07:53:38;;;;;;;23.48;2.78;;;;;;;;;;5108448;28;20035;-77
2022/05/04 07:56:05;;;;;;;11.80;2.25;;;;;;;;;;5105487;28;20032;-76
2022/05/04 07:58:31;;;;;;;11.88;2.35;;;;;;;;;;5103514;28;20041;-76
2022/05/04 08:06:27;;;;;;;8.10;3.15;;;;;;;;;;5099666;28;20142;-76
2022/05/04 08:08:53;;;;;;;41.30;21.02;;;;;;;;;;5113522;28;20475;-76
2022/05/04 08:11:19;;;;;;;9.68;2.42;;;;;;;;;;5111023;28;20030;-77
2022/05/04 08:13:45;;;;;;;13.43;2.13;;;;;;;;;;5111135;28;20093;-78
2022/05/04 08:16:13;;;;;;;12.00;1.75;;;;;;;;;;5105730;28;20032;-78
2022/05/04 08:18:40;;;;;;;9.15;2.17;;;;;;;;;;5107219;28;20473;-77
2022/05/04 08:21:07;;;;;;;8.82;2.03;;;;;;;;;;5102922;28;20035;-77
2022/05/04 08:23:33;;;;;;;10.63;1.98;;;;;;;;;;5103725;28;20039;-76
2022/05/04 08:25:59;;;;;;;8.65;2.22;;;;;;;;;;5106194;28;20032;-78
2022/05/04 08:28:25;;;;;;;10.20;1.67;;;;;;;;;;5105469;28;20059;-78
2022/05/04 08:30:51;;;;;;;10.30;2.65;;;;;;;;;;5111629;28;20118;-78
2022/05/04 08:33:18;;;;;;;11.38;1.90;;;;;;;;;;5109703;28;20070;-78
2022/05/04 08:35:44;;;;;;;6.68;1.40;;;;;;;;;;5107330;28;20528;-78
2022/05/04 08:38:12;;;;;;;7.07;1.50;;;;;;;;;;5106510;28;20042;-78
2022/05/04 08:40:38;;;;;;;7.85;1.70;;;;;;;;;;5101435;28;20073;-78
2022/05/04 08:43:07;;;;;;;7.22;1.55;;;;;;;;;;5105529;28;20027;-78
2022/05/04 08:45:36;;;;;;;9.77;2.25;;;;;;;;;;5105849;28;20044;-78
2022/05/04 08:48:03;;;;;;;6.65;1.70;;;;;;;;;;5102862;28;20099;-77
2022/05/04 08:50:29;;;;;;;6.15;1.80;;;;;;;;;;5109720;28;20079;-78
2022/05/04 08:52:55;;;;;;;10.68;4.32;;;;;;;;;;5101756;28;20420;-76
2022/05/04 08:55:21;;;;;;;9.50;2.15;;;;;;;;;;5106164;28;20028;-77
2022/05/04 08:57:48;;;;;;;8.18;1.50;;;;;;;;;;5101100;28;20027;-77
2022/05/04 09:00:15;;;;;;;9.23;1.65;;;;;;;;;;5105306;28;20416;-78
2022/05/04 09:02:41;;;;;;;5.18;1.60;;;;;;;;;;5110095;28;20111;-80
2022/05/04 09:05:20;;;;;;;9.10;1.80;;;;;;;;;;5109754;28;20031;-79
2022/05/04 09:07:47;;;;;;;7.18;1.60;;;;;;;;;;5102751;28;20048;-78
2022/05/04 09:10:17;;;;;;;7.03;1.67;;;;;;;;;;5111679;28;20118;-78
2022/05/04 09:12:44;;;;;;;15.02;2.05;;;;;;;;;;5105397;28;20024;-77
2022/05/04 09:15:17;;;;;;;6.72;1.67;;;;;;;;;;5109294;28;20040;-78
2022/05/04 09:17:43;;;;;;;6.22;1.65;;;;;;;;;;5113575;28;20023;-79
2022/05/04 09:22:55;;;;;;;8.57;1.85;;;;;;;;;;5110618;28;20039;-79
2022/05/04 09:25:21;;;;;;;7.03;2.03;;;;;;;;;;5115241;28;20040;-79
2022/05/04 09:27:48;;;;;;;14.73;2.92;;;;;;;;;;5101923;28;20027;-79
2022/05/04 09:30:14;;;;;;;12.82;1.70;;;;;;;;;;5114055;28;20081;-80
2022/05/04 09:32:40;;;;;;;9.13;1.90;;;;;;;;;;5112810;28;20035;-79
2022/05/04 09:35:13;;;;;;;7.97;1.60;;;;;;;;;;5113590;28;20055;-78
2022/05/04 09:45:55;;;;;;;5.85;1.63;;;;;;;;;;5108338;28;20172;-76
2022/05/04 09:48:34;;;;;;;10.23;2.45;;;;;;;;;;5107003;28;20047;-77
2022/05/04 09:51:10;;;;;;;7.85;1.88;;;;;;;;;;5111210;28;20314;-76
2022/05/04 09:53:36;;;;;;;9.02;1.60;;;;;;;;;;5098641;28;20023;-76
2022/05/04 09:56:03;;;;;;;8.80;1.77;;;;;;;;;;5111533;28;20106;-76
2022/05/04 09:58:30;;;;;;;9.18;2.05;;;;;;;;;;5104585;28;20032;-78
2022/05/04 10:00:57;;;;;;;4.65;1.08;;;;;;;;;;5099866;28;20020;-78
2022/05/04 10:03:23;;;;;;;7.47;1.90;;;;;;;;;;5110409;28;20032;-78
2022/05/04 10:05:50;;;;;;;6.90;1.75;;;;;;;;;;5111439;27;20043;-78
2022/05/04 10:08:16;;;;;;;6.95;1.67;;;;;;;;;;5103389;28;20058;-76
2022/05/04 10:10:43;;;;;;;6.68;1.48;;;;;;;;;;5095585;27;20027;-78
2022/05/04 10:13:09;;;;;;;7.07;1.88;;;;;;;;;;5090897;28;20031;-76
2022/05/04 10:15:38;;;;;;;8.65;1.73;;;;;;;;;;5115622;27;20380;-77
2022/05/04 10:18:05;;;;;;;18.50;11.80;;;;;;;;;;5104734;27;20024;-76
2022/05/04 10:20:33;;;;;;;6.43;2.10;;;;;;;;;;5091473;28;20027;-75
2022/05/04 10:23:02;;;;;;;5.90;2.03;;;;;;;;;;5090304;28;20024;-78
2022/05/04 10:25:32;;;;;;;6.60;1.95;;;;;;;;;;5110687;28;20039;-78
2022/05/04 10:28:14;;;;;;;10.38;2.13;;;;;;;;;;5112489;27;20031;-78
2022/05/04 10:31:06;;;;;;;16.27;1.77;;;;;;;;;;5106715;27;20028;-78
2022/05/04 10:33:33;;;;;;;7.35;1.67;;;;;;;;;;5083484;28;20052;-77
2022/05/04 10:36:19;;;;;;;8.60;1.98;;;;;;;;;;5101892;28;20943;-78
2022/05/04 10:38:46;;;;;;;7.82;1.48;;;;;;;;;;5105435;27;20118;-76
2022/05/04 10:41:12;;;;;;;6.90;2.03;;;;;;;;;;5077734;28;20020;-76
2022/05/04 10:43:45;;;;;;;10.85;2.03;;;;;;;;;;5107098;28;20031;-77
2022/05/04 10:46:12;;;;;;;10.57;2.38;;;;;;;;;;5113668;28;20024;-77
2022/05/04 10:48:58;;;;;;;7.20;1.88;;;;;;;;;;5096739;28;20039;-77
2022/05/04 10:51:28;;;;;;;12.27;2.17;;;;;;;;;;5090832;28;20592;-77
2022/05/04 10:54:09;;;;;;;8.32;1.88;;;;;;;;;;5112685;28;20068;-77
2022/05/04 10:56:42;;;;;;;12.27;2.13;;;;;;;;;;5093548;28;20036;-76
2022/05/04 10:59:08;;;;;;;9.05;1.60;;;;;;;;;;5109118;28;20024;-76
2022/05/04 11:01:36;;;;;;;8.90;2.08;;;;;;;;;;5109600;28;20032;-76
2022/05/04 11:04:14;;;;;;;5.03;1.75;;;;;;;;;;5092517;28;20082;-78
2022/05/04 11:06:46;;;;;;;8.90;1.75;;;;;;;;;;5112742;28;20593;-77
2022/05/04 11:09:13;;;;;;;10.40;2.40;;;;;;;;;;5108485;28;20084;-77
2022/05/04 11:11:47;;;;;;;6.05;1.52;;;;;;;;;;5116563;27;20023;-78
2022/05/04 11:14:13;;;;;;;7.90;1.73;;;;;;;;;;5129936;27;20036;-77
2022/05/04 11:16:40;;;;;;;9.80;1.88;;;;;;;;;;5088381;28;20231;-78
2022/05/04 11:19:07;;;;;;;8.77;2.15;;;;;;;;;;5095410;28;20023;-77
2022/05/04 11:21:39;;;;;;;8.00;2.00;;;;;;;;;;5109099;28;20031;-77
2022/05/04 11:24:07;;;;;;;7.35;1.80;;;;;;;;;;5111908;28;20028;-77
2022/05/04 11:26:43;;;;;;;4.18;1.30;;;;;;;;;;5111760;28;20853;-78
2022/05/04 11:29:16;;;;;;;8.10;1.80;;;;;;;;;;5102524;28;20020;-77
2022/05/04 11:32:02;;;;;;;6.72;1.60;;;;;;;;;;5098713;28;20178;-79
2022/05/04 11:34:31;;;;;;;6.65;2.00;;;;;;;;;;5108353;28;20100;-77
2022/05/04 11:36:58;;;;;;;3.40;1.30;;;;;;;;;;5110552;28;20061;-77
2022/05/04 11:39:25;;;;;;;6.78;2.00;;;;;;;;;;5100306;28;20098;-77
2022/05/04 11:41:52;;;;;;;6.95;1.88;;;;;;;;;;5103227;28;20375;-77
2022/05/04 11:44:22;;;;;;;7.50;2.03;;;;;;;;;;5087950;27;20406;-77
2022/05/04 11:46:49;;;;;;;10.02;1.90;;;;;;;;;;5092889;28;20042;-77
2022/05/04 11:49:15;;;;;;;4.07;1.45;;;;;;;;;;5093174;28;20024;-77
2022/05/04 11:51:42;;;;;;;9.70;2.00;;;;;;;;;;5112063;28;20024;-77
2022/05/04 11:54:08;;;;;;;7.45;2.22;;;;;;;;;;5112246;28;20047;-77
2022/05/04 11:56:34;;;;;;;9.55;1.88;;;;;;;;;;5119784;27;20092;-77
2022/05/04 11:59:01;;;;;;;10.63;2.00;;;;;;;;;;5129827;27;20080;-77
2022/05/04 12:01:27;;;;;;;8.68;2.55;;;;;;;;;;5111172;28;20031;-77
2022/05/04 12:03:53;;;;;;;5.80;1.90;;;;;;;;;;5105203;28;20061;-76
2022/05/04 12:06:20;;;;;;;12.40;1.88;;;;;;;;;;5110004;27;20069;-77
2022/05/04 12:08:46;;;;;;;11.77;2.83;;;;;;;;;;5100132;28;20038;-76
2022/05/04 12:11:12;;;;;;;7.70;1.90;;;;;;;;;;5111780;28;20023;-76
2022/05/04 12:13:42;;;;;;;6.78;2.17;;;;;;;;;;5109629;28;20173;-77
2022/05/04 12:16:10;;;;;;;8.18;2.08;;;;;;;;;;5102259;28;20024;-77
2022/05/04 12:18:37;;;;;;;9.38;2.10;;;;;;;;;;5088269;28;20028;-76
2022/05/04 12:21:06;;;;;;;5.60;2.05;;;;;;;;;;5092664;28;20023;-78
2022/05/04 12:23:32;;;;;;;11.90;2.83;;;;;;;;;;5093754;28;20019;-77
2022/05/04 12:25:58;;;;;;;7.63;2.20;;;;;;;;;;5092086;28;20043;-77
2022/05/04 12:28:24;;;;;;;7.05;2.40;;;;;;;;;;5107988;28;20534;-77
2022/05/04 12:33:39;;;;;;;8.07;2.45;;;;;;;;;;5108226;28;20054;-77
2022/05/04 12:36:07;;;;;;;7.25;2.20;;;;;;;;;;5101341;28;20020;-77
2022/05/04 12:38:34;;;;;;;7.28;1.73;;;;;;;;;;5093330;28;20506;-76
2022/05/04 12:41:01;;;;;;;11.13;3.05;;;;;;;;;;5108170;28;20182;-77
2022/05/04 12:43:30;;;;;;;6.05;2.00;;;;;;;;;;5083306;28;20502;-77
2022/05/04 12:45:56;;;;;;;11.60;2.47;;;;;;;;;;5111339;28;20570;-77
2022/05/04 12:48:25;;;;;;;8.82;2.88;;;;;;;;;;5112509;28;20103;-77
2022/05/04 12:50:52;;;;;;;7.75;2.42;;;;;;;;;;5110045;28;20036;-77
2022/05/04 12:53:19;;;;;;;8.25;2.17;;;;;;;;;;5094635;28;20038;-76
2022/05/04 12:58:29;;;;;;;9.13;2.60;;;;;;;;;;5090921;28;20046;-76
2022/05/04 13:00:55;;;;;;;6.43;2.40;;;;;;;;;;5083330;28;20480;-76
2022/05/04 13:03:21;;;;;;;6.65;2.10;;;;;;;;;;5104781;28;20099;-76
2022/05/04 13:05:48;;;;;;;12.40;2.72;;;;;;;;;;5091324;28;20051;-78
2022/05/04 13:08:14;;;;;;;7.60;2.47;;;;;;;;;;5097852;28;20056;-77
2022/05/04 13:10:40;;;;;;;6.95;2.03;;;;;;;;;;5105010;28;20039;-76
2022/05/04 13:13:06;;;;;;;4.53;2.20;;;;;;;;;;5101644;28;20145;-75
2022/05/04 13:15:33;;;;;;;12.88;2.35;;;;;;;;;;5080787;28;20051;-76
2022/05/04 13:18:00;;;;;;;8.10;2.33;;;;;;;;;;5104984;28;20024;-76
2022/05/04 13:20:26;;;;;;;8.38;2.17;;;;;;;;;;5110434;28;20490;-75
2022/05/04 13:22:52;;;;;;;9.80;2.17;;;;;;;;;;5109391;28;20028;-76
2022/05/04 13:25:18;;;;;;;8.35;3.08;;;;;;;;;;5089214;28;20028;-76
2022/05/04 13:27:44;;;;;;;13.02;3.03;;;;;;;;;;5083778;28;20039;-76
2022/05/04 13:30:11;;;;;;;11.20;2.70;;;;;;;;;;5096238;28;20458;-75
2022/05/04 13:32:37;;;;;;;5.75;2.47;;;;;;;;;;5106370;28;20073;-76
2022/05/04 13:35:04;;;;;;;12.13;3.13;;;;;;;;;;5098342;28;20106;-77
2022/05/04 13:37:30;;;;;;;6.63;2.55;;;;;;;;;;5104103;28;20486;-76
2022/05/04 13:39:56;;;;;;;8.00;2.55;;;;;;;;;;5091526;28;20032;-76
2022/05/04 13:42:22;;;;;;;5.95;2.25;;;;;;;;;;5107857;28;20036;-76
2022/05/04 13:44:48;;;;;;;5.82;2.17;;;;;;;;;;5102089;28;20111;-76
2022/05/04 13:47:14;;;;;;;9.95;2.33;;;;;;;;;;5096188;28;20073;-78
2022/05/04 13:49:40;;;;;;;8.38;2.10;;;;;;;;;;5104600;28;20494;-78
2022/05/04 13:54:51;;;;;;;5.63;2.20;;;;;;;;;;5097531;28;20039;-76
2022/05/04 13:57:17;;;;;;;6.03;2.20;;;;;;;;;;5108501;28;20032;-76
2022/05/04 13:59:43;;;;;;;4.78;2.05;;;;;;;;;;5108224;28;20038;-77
2022/05/04 14:02:10;;;;;;;7.80;2.72;;;;;;;;;;5107349;27;20023;-78
2022/05/04 14:04:40;;;;;;;9.98;2.30;;;;;;;;;;5120533;27;20031;-78
2022/05/04 14:07:06;;;;;;;9.95;2.53;;;;;;;;;;5115291;27;20459;-76
2022/05/04 14:09:33;;;;;;;9.95;2.78;;;;;;;;;;5112498;28;20035;-75
2022/05/04 14:12:02;;;;;;;10.07;2.72;;;;;;;;;;5093581;28;20122;-74
2022/05/04 14:17:13;;;;;;;6.63;1.90;;;;;;;;;;5109487;28;20038;-75
2022/05/04 14:19:39;;;;;;;5.03;2.38;;;;;;;;;;5106377;28;20459;-74
2022/05/04 14:22:05;;;;;;;5.40;1.67;;;;;;;;;;5106859;28;20467;-75
2022/05/04 14:24:31;;;;;;;6.18;2.03;;;;;;;;;;5114643;28;20387;-75
2022/05/04 14:26:58;;;;;;;8.68;2.75;;;;;;;;;;5109053;28;20020;-75
2022/05/04 14:29:24;;;;;;;8.55;2.20;;;;;;;;;;5103575;28;20093;-75
2022/05/04 14:31:50;;;;;;;5.32;1.92;;;;;;;;;;5109504;28;20489;-76
2022/05/04 14:34:16;;;;;;;6.40;2.65;;;;;;;;;;5101080;28;20059;-75
2022/05/04 14:36:43;;;;;;;8.80;2.88;;;;;;;;;;5090848;28;20028;-75
2022/05/04 14:39:09;;;;;;;5.32;2.55;;;;;;;;;;5114568;28;20059;-78
2022/05/04 14:41:35;;;;;;;11.55;3.38;;;;;;;;;;5111647;28;20024;-75
2022/05/04 14:44:01;;;;;;;9.20;2.50;;;;;;;;;;5107907;28;20061;-77
2022/05/04 14:46:27;;;;;;;8.27;2.17;;;;;;;;;;5107901;28;20035;-76
2022/05/04 14:48:54;;;;;;;9.25;1.85;;;;;;;;;;5107284;28;20044;-77
2022/05/04 14:51:21;;;;;;;11.40;3.15;;;;;;;;;;5108719;28;20360;-77
2022/05/04 14:53:51;;;;;;;7.97;2.17;;;;;;;;;;5101154;28;20036;-77
2022/05/04 14:56:20;;;;;;;6.05;2.20;;;;;;;;;;5101149;28;20031;-77
2022/05/04 14:58:46;;;;;;;12.40;2.25;;;;;;;;;;5104299;28;20111;-77
2022/05/04 15:01:13;;;;;;;10.13;2.55;;;;;;;;;;5110646;28;20016;-77
2022/05/04 15:06:24;;;;;;;7.30;2.35;;;;;;;;;;5104060;28;20050;-76
2022/05/04 15:08:50;;;;;;;7.45;2.80;;;;;;;;;;5088065;28;20032;-78
2022/05/04 15:11:16;;;;;;;9.70;2.70;;;;;;;;;;5077231;28;20024;-77
2022/05/04 15:13:42;;;;;;;5.78;2.08;;;;;;;;;;5069177;28;20435;-77
2022/05/04 15:16:08;;;;;;;6.38;2.95;;;;;;;;;;5068411;28;20024;-77
2022/05/04 15:18:35;;;;;;;10.98;2.92;;;;;;;;;;5089119;28;20028;-77
2022/05/04 15:21:01;;;;;;;7.82;2.95;;;;;;;;;;5082061;28;20910;-77
2022/05/04 15:23:27;;;;;;;14.07;3.40;;;;;;;;;;5071132;28;20628;-77
2022/05/04 15:25:54;;;;;;;8.63;2.72;;;;;;;;;;5086378;28;20028;-77
2022/05/04 15:28:20;;;;;;;8.73;2.50;;;;;;;;;;5088181;28;20035;-77